ハノイ の空港の天気 - METARとTAF

ノイバイ国際空港(ハノイ) ( VVNB / HAN ) - ベトナム ハノイ
飛行場実況気象(Metar)
観測時間12/08 13:00 ICT (12/08 06:00 UTC)
風向・風速北北東 4m/s 瞬間風速9m/s
視程10km以上
天気現象
少しの雲 雲底高度 300m
全天の8割程度の雲 雲底高度 370m
全天を覆う雲 雲底高度 580m
気温16℃
湿度88%
気圧1018hPa
METARVVNB 080600Z 02007G18KT 320V120 9999 FEW010 BKN012 OVC019 16/14 Q1018 NOSIG
過去の天気等 Google飛行場航空写真 Wunderground天気予報

過去48時間のMETAR

飛行場予報(TAF)
発表時間: 12/08 12:00 ICT (12/08 05:00 UTC)
予報対象時間: 8日13時 ICT ~ 9日13時 ICT
風向・風速北北東 4m/s
視程8000m
全天の4割程度の雲 雲底高度 610m
全天の8割程度の雲 雲底高度 1220m
9日3時 ICT ~ 9日9時 ICT に一時的に
視程3500m
天気現象弱い霧雨 もや
全天の4割程度の雲 雲底高度 150m
全天の8割程度の雲 雲底高度 610m
TAF VVNB 080500Z 0806/0906 02007KT 8000 SCT020 BKN040
TEMPO 0820/0902 3500 -DZ BR SCT005 BKN020